Grizzly Air Cargo 5121


PANC
Ted Stevens Anchorage International Airport
Anchorage, Alaska, US
KSMF
Sacramento International Airport
Sacramento, California, US

Activity Log

Date Flight Route Aircraft Duration
08/28/2019 GRZ515 MDO B453 KANUA BOXER FOT V195 RBL TUDOR2 B738 4h 16m
06/28/2019 GRZ515 MDO B453 KANUA BOXER FOT V195 RBL TUDOR2 B738 4h 16m
06/26/2019 GRZ515 MDO B453 KANUA BOXER FOT V195 RBL TUDOR2 B738 4h 17m

Route Details

Aircraft Information
Primary: Boeing 737-800BCF
Backup: Not Available
Route Data
Distance: 1714nm
Sched. Duration: 4h 07m
Avg. Duration: 4h 16m (+10m)
Times Flown: 3
Recm'd Route: MDO B453 KANUA BOXER FOT V195 RBL TUDOR2
Planned Altitude: 35,000ft
Origin Wx: PANC 061153Z 10SM FEW047 M03/M09 A2968 RMK AO2 SLP054 4/018 T10331089 10000 21039 56007 $
Dest. Wx: KSMF 061153Z 22003KT 10SM SCT120 03/02 A2980 RMK AO2 SLP089 70039 T00330022 10083 20033 51012
Notes:

Financial History
Total Freight: 97,681lbs
Average Load: 32,560lbs/flt
Fuel Used: 66,854lbs
Avg. Fuel Used: 22,285lbs/flt
Fuel Expense: $82,899
Avg. Fuel Expense: $27,633
Avg. Fuel Cost: $1.24/lbs
Total Gross Income: $161,174
Pilot Pay: $527
Total Expenses: $17,563
Total Revenue: $58,242
Average Revenue: $53,724.55